Time;durP1;ratioP1;P1;durP2;ratioP2;P2;SDS_P1;SDS_P2;PMS_P1;PMS_P2;Temp;Humidity;BMP_temperature;BMP_pressure;BME280_temperature;BME280_humidity;BME280_pressure;Samples;Min_cycle;Max_cycle;Signal;HPM_P1;HPM_P2
2024/02/13 00:00:55;;;;;;;8.30;0.90;;;5.70;99.90;;;;;;6308549;22;20094;-91
2024/02/13 00:03:25;;;;;;;7.05;1.00;;;5.70;99.90;;;;;;6308262;22;20003;-90
2024/02/13 00:05:53;;;;;;;5.00;1.08;;;5.70;99.90;;;;;;6311179;22;20462;-91
2024/02/13 00:08:19;;;;;;;1.50;0.80;;;5.70;99.90;;;;;;6318608;22;19999;-91
2024/02/13 00:10:45;;;;;;;6.22;1.23;;;5.70;99.90;;;;;;6316658;22;20033;-90
2024/02/13 00:13:11;;;;;;;4.40;0.85;;;5.70;99.90;;;;;;6314697;22;20085;-91
2024/02/13 00:15:38;;;;;;;2.60;0.85;;;5.70;99.90;;;;;;6313483;22;20018;-90
2024/02/13 00:18:05;;;;;;;5.28;1.02;;;5.80;99.90;;;;;;6312436;22;20327;-90
2024/02/13 00:20:32;;;;;;;4.78;0.88;;;5.70;99.90;;;;;;6313429;22;20026;-90
2024/02/13 00:22:59;;;;;;;11.32;1.02;;;5.70;99.90;;;;;;6313505;22;20034;-90
2024/02/13 00:25:26;;;;;;;7.80;1.13;;;5.70;99.90;;;;;;6313013;22;20003;-90
2024/02/13 00:27:52;;;;;;;2.38;0.70;;;5.70;99.90;;;;;;6311371;22;20434;-90
2024/02/13 00:30:19;;;;;;;2.65;1.00;;;5.70;99.90;;;;;;6312317;22;20009;-90
2024/02/13 00:32:44;;;;;;;3.00;0.60;;;5.70;99.90;;;;;;6311838;22;20438;-90
2024/02/13 00:35:10;;;;;;;3.95;0.60;;;5.70;99.90;;;;;;6311534;22;20006;-91
2024/02/13 00:37:36;;;;;;;2.92;0.50;;;5.70;99.90;;;;;;6311748;22;20415;-89
2024/02/13 00:40:05;;;;;;;8.10;1.15;;;5.70;99.90;;;;;;6312251;22;20002;-91
2024/02/13 00:42:32;;;;;;;5.97;0.80;;;5.70;99.90;;;;;;6312554;22;20009;-90
2024/02/13 00:45:03;;;;;;;2.50;0.77;;;5.70;99.90;;;;;;6312538;22;19999;-91
2024/02/13 00:47:29;;;;;;;5.50;0.70;;;5.70;99.90;;;;;;6312113;22;20002;-89
2024/02/13 00:49:55;;;;;;;9.48;0.70;;;5.70;99.90;;;;;;6311564;22;20010;-91
2024/02/13 00:52:21;;;;;;;5.40;0.82;;;5.70;99.90;;;;;;6312530;22;20087;-90
2024/02/13 00:54:47;;;;;;;5.65;1.88;;;5.70;99.90;;;;;;6312159;22;20003;-90
2024/02/13 00:57:13;;;;;;;3.95;0.93;;;5.70;99.90;;;;;;6312403;22;20011;-91
2024/02/13 00:59:40;;;;;;;1.95;0.68;;;5.70;99.90;;;;;;6321286;22;20042;-90
2024/02/13 01:02:06;;;;;;;8.65;1.27;;;5.70;99.90;;;;;;6338620;22;20030;-90
2024/02/13 01:04:31;;;;;;;6.57;0.98;;;5.70;99.90;;;;;;6339135;22;20426;-89
2024/02/13 01:06:57;;;;;;;4.63;1.13;;;5.70;99.90;;;;;;6339776;22;19999;-90
2024/02/13 01:09:23;;;;;;;6.25;1.08;;;5.70;99.90;;;;;;6339486;22;20062;-90
2024/02/13 01:11:49;;;;;;;4.07;1.00;;;5.70;99.90;;;;;;6340227;22;20010;-90
2024/02/13 01:14:15;;;;;;;3.78;0.80;;;5.70;99.90;;;;;;6340486;22;19999;-91
2024/02/13 01:16:40;;;;;;;4.05;1.00;;;5.70;99.90;;;;;;6354267;22;20023;-91
2024/02/13 01:19:17;;;;;;;5.80;1.02;;;5.70;99.90;;;;;;6361632;22;20021;-92
2024/02/13 01:21:43;;;;;;;8.55;0.88;;;5.70;99.90;;;;;;6359829;22;20013;-91
2024/02/13 01:24:09;;;;;;;8.75;1.20;;;5.70;99.90;;;;;;6357984;22;20003;-91
2024/02/13 01:26:34;;;;;;;3.20;1.00;;;5.70;99.90;;;;;;6353778;22;20074;-91
2024/02/13 01:29:00;;;;;;;5.05;0.85;;;5.70;99.90;;;;;;6346512;22;20381;-92
2024/02/13 01:31:26;;;;;;;7.32;0.98;;;5.70;99.90;;;;;;6343970;22;20011;-92
2024/02/13 01:33:52;;;;;;;5.10;1.10;;;5.70;99.90;;;;;;6343604;22;20453;-89
2024/02/13 01:36:22;;;;;;;5.72;0.98;;;5.70;99.90;;;;;;6317727;22;20010;-91
2024/02/13 01:38:48;;;;;;;6.00;0.63;;;5.70;99.90;;;;;;6339111;22;20015;-91
2024/02/13 01:41:14;;;;;;;4.40;0.70;;;5.80;99.90;;;;;;6339103;22;20444;-91
2024/02/13 01:43:40;;;;;;;4.22;0.80;;;5.70;99.90;;;;;;6338830;22;20026;-91
2024/02/13 01:46:06;;;;;;;6.28;0.95;;;5.80;99.90;;;;;;6338662;22;20011;-92
2024/02/13 01:48:32;;;;;;;6.60;0.90;;;5.80;99.90;;;;;;6338708;22;20078;-92
2024/02/13 01:51:00;;;;;;;11.52;0.75;;;5.80;99.90;;;;;;6338397;22;20086;-91
2024/02/13 01:53:28;;;;;;;6.18;0.63;;;5.80;99.90;;;;;;6338602;22;20035;-91
2024/02/13 01:55:56;;;;;;;8.38;0.82;;;5.90;99.90;;;;;;6338367;22;20009;-91
2024/02/13 01:58:23;;;;;;;3.15;0.75;;;5.90;99.90;;;;;;6337609;22;20037;-91
2024/02/13 02:00:58;;;;;;;5.40;1.20;;;5.90;99.90;;;;;;6337031;22;20472;-91
2024/02/13 02:03:25;;;;;;;9.02;1.15;;;5.90;99.90;;;;;;6337975;22;20010;-91
2024/02/13 02:05:52;;;;;;;9.38;1.50;;;5.90;99.90;;;;;;6337966;22;20003;-89
2024/02/13 02:08:18;;;;;;;4.70;0.90;;;5.90;99.90;;;;;;6337094;22;19998;-91
2024/02/13 02:10:44;;;;;;;6.25;1.10;;;5.90;99.90;;;;;;6337504;22;20056;-91
2024/02/13 02:13:14;;;;;;;5.97;0.95;;;5.90;99.90;;;;;;6337670;22;20027;-92
2024/02/13 02:15:41;;;;;;;2.23;0.70;;;5.90;99.90;;;;;;6337978;22;20014;-91
2024/02/13 02:18:09;;;;;;;6.50;0.82;;;5.90;99.90;;;;;;6337372;22;20269;-91
2024/02/13 02:20:36;;;;;;;9.05;1.15;;;5.80;99.90;;;;;;6336933;22;19998;-90
2024/02/13 02:23:02;;;;;;;5.38;1.30;;;5.80;99.90;;;;;;6337335;22;20007;-91
2024/02/13 02:25:29;;;;;;;4.30;1.20;;;5.80;99.90;;;;;;6337623;22;20418;-91
2024/02/13 02:27:55;;;;;;;5.20;1.35;;;5.80;99.90;;;;;;6336470;22;20031;-92
2024/02/13 02:30:22;;;;;;;3.60;0.75;;;5.80;99.90;;;;;;6337302;22;20014;-92
2024/02/13 02:32:48;;;;;;;3.97;0.80;;;5.80;99.90;;;;;;6338168;22;20010;-91
2024/02/13 02:35:16;;;;;;;4.78;0.70;;;5.80;99.90;;;;;;6337507;22;20436;-91
2024/02/13 02:37:46;;;;;;;4.85;0.70;;;5.80;99.90;;;;;;6336605;22;20017;-92
2024/02/13 02:40:14;;;;;;;1.75;0.70;;;5.80;99.90;;;;;;6337914;22;20053;-91
2024/02/13 02:42:39;;;;;;;5.78;0.80;;;5.80;99.90;;;;;;6336708;22;20003;-93
2024/02/13 02:45:06;;;;;;;3.40;0.90;;;5.80;99.90;;;;;;6337410;22;20007;-92
2024/02/13 02:47:34;;;;;;;4.55;0.80;;;5.80;99.90;;;;;;6338197;22;20042;-92
2024/02/13 02:50:00;;;;;;;6.55;0.98;;;5.80;99.90;;;;;;6337729;22;19999;-91
2024/02/13 02:52:26;;;;;;;3.92;0.82;;;5.80;99.90;;;;;;6338502;22;20002;-92
2024/02/13 02:54:52;;;;;;;6.70;0.80;;;5.80;99.90;;;;;;6339495;22;19999;-91
2024/02/13 02:57:17;;;;;;;5.30;0.90;;;5.80;99.90;;;;;;6339366;22;20102;-92
2024/02/13 02:59:45;;;;;;;7.40;0.93;;;5.80;99.90;;;;;;6339431;22;20011;-91
2024/02/13 03:02:12;;;;;;;4.43;0.88;;;5.80;99.90;;;;;;6338802;22;20007;-90
2024/02/13 03:04:37;;;;;;;10.82;2.10;;;5.80;99.90;;;;;;6338573;22;20031;-91
2024/02/13 03:07:03;;;;;;;9.05;1.13;;;5.70;99.90;;;;;;6339424;22;20007;-90
2024/02/13 03:09:29;;;;;;;9.13;0.80;;;5.70;99.90;;;;;;6339091;22;20060;-90
2024/02/13 03:11:55;;;;;;;4.10;0.70;;;5.70;99.90;;;;;;6338952;22;20094;-90
2024/02/13 03:14:21;;;;;;;4.53;0.80;;;5.70;99.90;;;;;;6339160;22;20034;-90
2024/02/13 03:16:47;;;;;;;6.93;0.80;;;5.70;99.90;;;;;;6338988;22;20007;-90
2024/02/13 03:19:13;;;;;;;6.03;0.70;;;5.70;99.90;;;;;;6338899;22;20010;-91
2024/02/13 03:21:40;;;;;;;11.43;0.95;;;5.70;99.90;;;;;;6339056;22;20055;-91
2024/02/13 03:24:05;;;;;;;4.38;0.90;;;5.70;99.90;;;;;;6338505;22;20042;-90
2024/02/13 03:26:32;;;;;;;8.32;1.05;;;5.70;99.90;;;;;;6339083;22;20010;-91
2024/02/13 03:28:57;;;;;;;8.38;1.42;;;5.70;99.90;;;;;;6339171;22;20086;-91
2024/02/13 03:31:23;;;;;;;5.28;0.90;;;5.70;99.90;;;;;;6339605;22;20003;-90
2024/02/13 03:33:49;;;;;;;10.50;1.20;;;5.70;99.90;;;;;;6338897;22;20009;-90
2024/02/13 03:36:16;;;;;;;6.00;0.88;;;5.70;99.90;;;;;;6339669;22;20060;-91
2024/02/13 03:38:48;;;;;;;6.35;1.10;;;5.70;99.90;;;;;;6339454;22;20011;-90
2024/02/13 03:41:14;;;;;;;7.43;1.60;;;5.70;99.90;;;;;;6338546;22;20056;-91
2024/02/13 03:43:43;;;;;;;5.68;1.15;;;5.60;99.90;;;;;;6339974;22;20007;-92
2024/02/13 03:46:09;;;;;;;2.83;1.10;;;5.60;99.90;;;;;;6338772;22;20051;-90
2024/02/13 03:48:36;;;;;;;9.40;1.45;;;5.60;99.90;;;;;;6338444;22;20007;-90
2024/02/13 03:51:06;;;;;;;7.03;1.70;;;5.60;99.90;;;;;;6338345;22;20006;-90
2024/02/13 03:53:34;;;;;;;8.43;1.70;;;5.60;99.90;;;;;;6338241;22;20010;-89
2024/02/13 03:56:03;;;;;;;4.25;0.98;;;5.60;99.90;;;;;;6340304;22;20011;-90
2024/02/13 03:58:28;;;;;;;5.30;1.33;;;5.60;99.90;;;;;;6338447;22;20034;-90
2024/02/13 04:00:55;;;;;;;5.40;1.60;;;5.60;99.90;;;;;;6338147;22;20022;-90
2024/02/13 04:03:21;;;;;;;5.03;1.50;;;5.60;99.90;;;;;;6337872;22;20461;-91
2024/02/13 04:05:48;;;;;;;10.15;1.75;;;5.60;99.90;;;;;;6338249;22;20422;-91
2024/02/13 04:08:14;;;;;;;9.48;1.70;;;5.60;99.90;;;;;;6338665;22;20048;-91
2024/02/13 04:10:39;;;;;;;10.95;1.88;;;5.50;99.90;;;;;;6338139;22;20002;-90
2024/02/13 04:13:06;;;;;;;7.78;1.58;;;5.50;99.90;;;;;;6337938;22;20055;-91
2024/02/13 04:15:35;;;;;;;9.43;2.03;;;5.50;99.90;;;;;;6337932;22;20003;-91
2024/02/13 04:18:02;;;;;;;10.85;1.65;;;5.50;99.90;;;;;;6337453;22;20015;-90
2024/02/13 04:20:28;;;;;;;14.05;4.57;;;5.50;99.90;;;;;;6336443;22;20010;-90
2024/02/13 04:22:53;;;;;;;14.50;1.70;;;5.40;99.90;;;;;;6337056;22;20038;-91
2024/02/13 04:25:19;;;;;;;5.82;1.70;;;5.40;99.90;;;;;;6337936;22;20003;-91
2024/02/13 04:27:45;;;;;;;3.60;1.27;;;5.40;99.90;;;;;;6338816;22;20384;-92
2024/02/13 04:30:12;;;;;;;5.53;1.70;;;5.40;99.90;;;;;;6338578;22;19999;-91
2024/02/13 04:32:38;;;;;;;5.38;1.90;;;5.30;99.90;;;;;;6338600;22;20010;-90
2024/02/13 04:35:05;;;;;;;7.97;1.73;;;5.30;99.90;;;;;;6339133;22;19995;-91
2024/02/13 04:37:31;;;;;;;8.02;2.22;;;5.30;99.90;;;;;;6338716;22;20038;-91
2024/02/13 04:39:57;;;;;;;7.75;1.70;;;5.30;99.90;;;;;;6339694;22;20006;-91
2024/02/13 04:42:36;;;;;;;9.45;2.00;;;5.30;99.90;;;;;;6339187;22;20448;-91
2024/02/13 04:45:03;;;;;;;8.02;2.53;;;5.30;99.90;;;;;;6339551;22;19999;-91
2024/02/13 04:47:30;;;;;;;5.85;2.15;;;5.30;99.90;;;;;;6339785;22;20060;-90
2024/02/13 04:50:01;;;;;;;12.48;2.22;;;5.30;99.90;;;;;;6348400;22;20010;-90
2024/02/13 04:52:27;;;;;;;;;;;5.30;99.90;;;;;;6351179;22;20011;-90
2024/02/13 04:54:59;;;;;;;6.38;1.63;;;5.30;99.90;;;;;;6352763;22;20087;-90
2024/02/13 04:57:25;;;;;;;5.63;1.90;;;5.30;99.90;;;;;;6359101;22;20002;-90
2024/02/13 04:59:51;;;;;;;7.32;2.10;;;5.40;99.90;;;;;;6358903;22;20030;-91
2024/02/13 05:02:21;;;;;;;7.32;2.30;;;5.40;99.90;;;;;;6357354;22;20289;-90
2024/02/13 05:07:35;;;;;;;10.18;2.63;;;5.40;99.90;;;;;;6359208;22;20029;-90
2024/02/13 05:10:02;;;;;;;9.85;2.03;;;5.40;99.90;;;;;;6356379;22;20006;-91
2024/02/13 05:12:28;;;;;;;3.35;1.85;;;5.40;99.90;;;;;;6350902;22;20002;-90
2024/02/13 05:14:54;;;;;;;5.75;1.65;;;5.40;99.90;;;;;;6346051;22;20106;-91
2024/02/13 05:17:23;;;;;;;6.10;2.08;;;5.30;99.90;;;;;;6342282;22;20015;-91
2024/02/13 05:19:50;;;;;;;4.22;1.60;;;5.40;99.90;;;;;;6343458;22;20015;-90
2024/02/13 05:22:16;;;;;;;4.63;1.90;;;5.30;99.90;;;;;;6339973;22;20006;-92
2024/02/13 05:24:43;;;;;;;4.55;1.80;;;5.30;99.90;;;;;;6340146;22;19999;-92
2024/02/13 05:27:09;;;;;;;10.80;2.25;;;5.30;99.90;;;;;;6339429;22;20007;-91
2024/02/13 05:29:36;;;;;;;3.97;1.48;;;5.30;99.90;;;;;;6339616;22;20058;-91
2024/02/13 05:32:05;;;;;;;5.30;1.60;;;5.30;99.90;;;;;;6339089;22;20003;-91
2024/02/13 05:34:31;;;;;;;4.95;1.88;;;5.20;99.90;;;;;;6338421;22;20010;-91
2024/02/13 05:36:59;;;;;;;8.65;2.10;;;5.20;99.90;;;;;;6338999;22;20011;-90
2024/02/13 05:39:25;;;;;;;5.00;1.63;;;5.20;99.90;;;;;;6338157;22;20006;-91
2024/02/13 05:41:51;;;;;;;5.15;1.80;;;5.20;99.90;;;;;;6338440;22;20006;-90
2024/02/13 05:44:17;;;;;;;13.20;2.97;;;5.20;99.90;;;;;;6337753;22;20013;-90
2024/02/13 05:46:43;;;;;;;7.85;3.22;;;5.20;99.90;;;;;;6337393;22;19995;-90
2024/02/13 05:49:09;;;;;;;6.15;1.75;;;5.20;99.90;;;;;;6338217;22;20003;-90
2024/02/13 05:51:35;;;;;;;5.60;1.80;;;5.10;99.90;;;;;;6338503;22;20037;-91
2024/02/13 05:54:04;;;;;;;4.80;1.90;;;5.10;99.90;;;;;;6338887;22;20055;-91
2024/02/13 05:56:31;;;;;;;9.45;2.40;;;5.10;99.90;;;;;;6341409;22;20010;-91
2024/02/13 05:59:00;;;;;;;7.88;2.08;;;5.10;99.90;;;;;;6338385;22;20300;-90
2024/02/13 06:01:26;;;;;;;7.55;2.10;;;5.10;99.90;;;;;;6338535;22;20014;-92
2024/02/13 06:03:55;;;;;;;4.63;1.85;;;5.00;99.90;;;;;;6338604;22;19999;-91
2024/02/13 06:06:22;;;;;;;6.10;2.13;;;5.10;99.90;;;;;;6338244;22;20002;-91
2024/02/13 06:08:48;;;;;;;5.82;2.45;;;5.00;99.90;;;;;;6338523;22;20033;-90
2024/02/13 06:11:14;;;;;;;8.32;2.60;;;5.00;99.90;;;;;;6338880;22;20334;-90
2024/02/13 06:13:41;;;;;;;7.78;2.22;;;5.00;99.90;;;;;;6338645;22;20002;-91
2024/02/13 06:16:07;;;;;;;10.13;2.30;;;5.00;99.90;;;;;;6338434;22;20011;-90
2024/02/13 06:18:33;;;;;;;7.57;2.13;;;5.00;99.90;;;;;;6338268;22;20093;-90
2024/02/13 06:20:59;;;;;;;6.55;2.47;;;5.00;99.90;;;;;;6338386;22;20034;-91
2024/02/13 06:23:25;;;;;;;5.72;1.80;;;5.00;99.90;;;;;;6338003;22;20034;-91
2024/02/13 06:25:51;;;;;;;6.43;1.58;;;5.00;99.90;;;;;;6338919;22;20007;-91
2024/02/13 06:28:16;;;;;;;6.07;1.95;;;5.00;99.90;;;;;;6338272;22;20057;-91
2024/02/13 06:30:44;;;;;;;2.47;1.40;;;4.90;99.90;;;;;;6338481;22;20009;-90
2024/02/13 06:33:11;;;;;;;7.38;3.15;;;5.00;99.90;;;;;;6338157;22;20010;-90
2024/02/13 06:35:37;;;;;;;2.45;1.50;;;4.90;99.90;;;;;;6339119;22;20338;-89
2024/02/13 06:38:02;;;;;;;6.75;1.75;;;4.90;99.90;;;;;;6338672;22;20007;-89
2024/02/13 06:40:29;;;;;;;10.63;2.40;;;4.90;99.90;;;;;;6338957;22;20037;-89
2024/02/13 06:42:54;;;;;;;4.38;1.90;;;4.90;99.90;;;;;;6339893;22;20390;-89
2024/02/13 06:45:21;;;;;;;5.63;2.03;;;4.90;99.90;;;;;;6338925;22;20081;-90
2024/02/13 06:47:47;;;;;;;5.57;2.20;;;4.90;99.90;;;;;;6339301;22;20018;-92
2024/02/13 06:50:12;;;;;;;4.68;1.70;;;4.90;99.90;;;;;;6348945;22;20003;-88
2024/02/13 06:52:39;;;;;;;4.68;1.65;;;5.00;99.90;;;;;;6357574;22;20025;-89
2024/02/13 06:55:07;;;;;;;5.05;1.30;;;5.00;99.90;;;;;;6357616;22;20023;-90
2024/02/13 06:57:35;;;;;;;4.30;1.27;;;5.00;99.90;;;;;;6351921;22;20014;-90
2024/02/13 07:00:07;;;;;;;3.58;1.50;;;5.00;99.90;;;;;;6339349;22;20014;-90
2024/02/13 07:02:33;;;;;;;4.25;1.77;;;5.00;99.90;;;;;;6338395;22;20097;-90
2024/02/13 07:04:59;;;;;;;4.78;1.40;;;5.00;99.90;;;;;;6337342;22;20006;-92
2024/02/13 07:07:25;;;;;;;8.30;1.63;;;5.00;99.90;;;;;;6338224;22;20002;-91
2024/02/13 07:09:54;;;;;;;6.13;1.70;;;5.00;99.90;;;;;;6336835;22;20426;-91
2024/02/13 07:12:22;;;;;;;7.78;1.70;;;5.10;99.90;;;;;;6336663;22;20014;-92
2024/02/13 07:14:51;;;;;;;7.85;2.15;;;5.10;99.90;;;;;;6336012;22;20023;-90
2024/02/13 07:17:16;;;;;;;3.13;1.80;;;5.10;99.90;;;;;;6337763;22;20046;-92
2024/02/13 07:19:42;;;;;;;6.03;1.58;;;5.10;99.90;;;;;;6337486;22;20011;-91
2024/02/13 07:22:08;;;;;;;3.83;1.50;;;5.10;99.90;;;;;;6337944;22;20086;-91
2024/02/13 07:24:38;;;;;;;2.25;1.42;;;5.10;99.90;;;;;;6337871;22;20002;-91
2024/02/13 07:27:04;;;;;;;5.93;1.50;;;5.10;99.90;;;;;;6340843;22;20028;-91
2024/02/13 07:29:31;;;;;;;5.07;1.30;;;5.10;99.90;;;;;;6337762;22;20003;-91
2024/02/13 07:31:57;;;;;;;4.30;1.95;;;5.20;99.90;;;;;;6336307;22;20015;-89
2024/02/13 07:34:23;;;;;;;8.15;1.80;;;5.20;99.90;;;;;;6336834;22;20082;-89
2024/02/13 07:36:49;;;;;;;4.43;1.60;;;5.20;99.90;;;;;;6337735;22;20038;-90
2024/02/13 07:39:15;;;;;;;1.50;1.27;;;5.20;99.90;;;;;;6313946;22;20013;-90
2024/02/13 07:41:43;;;;;;;5.25;1.52;;;5.20;99.90;;;;;;6338937;22;19999;-90
2024/02/13 07:44:09;;;;;;;3.25;1.45;;;5.20;99.90;;;;;;6338738;22;20003;-89
2024/02/13 07:46:38;;;;;;;8.10;1.48;;;5.20;99.90;;;;;;6339382;22;19999;-89
2024/02/13 07:49:04;;;;;;;1.95;1.00;;;5.30;99.90;;;;;;6340362;22;20007;-91
2024/02/13 07:51:30;;;;;;;3.47;1.33;;;5.30;99.90;;;;;;6338676;22;20395;-91
2024/02/13 07:53:57;;;;;;;5.03;1.15;;;5.30;99.90;;;;;;6339468;22;20007;-91
2024/02/13 07:56:28;;;;;;;4.28;1.30;;;5.30;99.90;;;;;;6338314;22;20003;-89
2024/02/13 07:58:58;;;;;;;1.60;0.75;;;5.30;99.90;;;;;;6338912;22;20011;-90
2024/02/13 08:01:25;;;;;;;2.83;1.63;;;5.30;99.90;;;;;;6339088;22;20082;-92
2024/02/13 08:03:52;;;;;;;3.58;1.13;;;5.30;99.90;;;;;;6338714;22;20351;-90
2024/02/13 08:06:18;;;;;;;2.35;1.02;;;5.30;99.90;;;;;;6338957;22;20025;-90
2024/02/13 08:08:46;;;;;;;3.22;1.33;;;5.30;99.90;;;;;;6339693;22;20427;-91
2024/02/13 08:11:13;;;;;;;2.20;1.17;;;5.30;99.90;;;;;;6339619;22;20045;-90
2024/02/13 08:13:39;;;;;;;2.17;1.40;;;5.30;99.90;;;;;;6339860;22;20033;-91
2024/02/13 08:16:06;;;;;;;4.60;1.38;;;5.30;99.90;;;;;;6340894;22;20048;-89
2024/02/13 08:18:34;;;;;;;6.38;2.05;;;5.30;99.90;;;;;;6338309;22;20014;-91
2024/02/13 08:21:01;;;;;;;2.80;1.48;;;5.40;99.90;;;;;;6339928;22;19999;-90
2024/02/13 08:23:27;;;;;;;1.70;1.08;;;5.40;99.90;;;;;;6338626;22;20011;-91
2024/02/13 08:25:52;;;;;;;6.88;1.50;;;5.40;99.90;;;;;;6338609;22;19999;-89
2024/02/13 08:28:19;;;;;;;5.10;1.40;;;5.40;99.90;;;;;;6339647;22;20370;-90
2024/02/13 08:30:48;;;;;;;3.92;1.10;;;5.40;99.90;;;;;;6338015;22;19999;-89
2024/02/13 08:33:14;;;;;;;4.90;1.00;;;5.50;99.90;;;;;;6313825;22;20011;-90
2024/02/13 08:35:42;;;;;;;4.30;1.30;;;5.50;99.90;;;;;;6339069;22;20057;-89
2024/02/13 08:38:09;;;;;;;3.10;1.85;;;5.50;99.90;;;;;;6339437;22;20403;-89
2024/02/13 08:40:35;;;;;;;1.35;1.00;;;5.60;99.90;;;;;;6339015;22;20056;-89
2024/02/13 08:43:01;;;;;;;6.22;1.10;;;5.60;99.90;;;;;;6339005;22;20007;-90
2024/02/13 08:45:27;;;;;;;8.07;1.70;;;5.60;99.90;;;;;;6339056;22;20341;-89
2024/02/13 08:47:55;;;;;;;2.13;1.40;;;5.70;99.90;;;;;;6342770;22;20003;-88
2024/02/13 08:50:21;;;;;;;10.57;1.70;;;5.70;99.90;;;;;;6347433;22;19999;-90
2024/02/13 08:52:46;;;;;;;2.67;1.27;;;5.70;99.90;;;;;;6348863;22;20014;-88
2024/02/13 08:55:13;;;;;;;4.80;1.58;;;5.80;99.90;;;;;;6345578;22;20414;-89
2024/02/13 08:57:39;;;;;;;3.90;1.65;;;5.80;99.90;;;;;;6348079;22;20009;-90
2024/02/13 09:00:11;;;;;;;2.67;1.75;;;5.80;99.90;;;;;;6340215;22;20011;-90
2024/02/13 09:02:37;;;;;;;5.75;1.58;;;5.80;99.90;;;;;;6339314;22;20006;-89
2024/02/13 09:05:04;;;;;;;2.90;1.40;;;5.90;99.90;;;;;;6338930;22;20052;-89
2024/02/13 09:07:31;;;;;;;7.78;1.73;;;5.80;99.90;;;;;;6338473;22;20007;-90
2024/02/13 09:09:57;;;;;;;6.28;1.90;;;5.90;99.90;;;;;;6340980;22;20026;-90
2024/02/13 09:12:23;;;;;;;4.30;1.80;;;5.90;99.90;;;;;;6341569;22;20028;-92
2024/02/13 09:14:49;;;;;;;4.60;1.90;;;5.90;99.90;;;;;;6340020;22;19999;-91
2024/02/13 09:17:16;;;;;;;3.85;1.50;;;5.90;99.90;;;;;;6335914;22;20093;-92
2024/02/13 09:19:43;;;;;;;4.85;2.33;;;5.90;99.90;;;;;;6338693;22;20449;-91
2024/02/13 09:22:13;;;;;;;2.78;1.63;;;5.90;99.90;;;;;;6337217;22;20006;-90
2024/02/13 09:24:43;;;;;;;4.95;2.25;;;5.90;99.90;;;;;;6338984;22;20003;-90
2024/02/13 09:27:11;;;;;;;4.53;2.17;;;6.00;99.90;;;;;;6337075;22;20574;-90
2024/02/13 09:29:38;;;;;;;3.40;1.52;;;6.00;99.90;;;;;;6340094;22;20407;-91
2024/02/13 09:32:04;;;;;;;5.28;1.80;;;6.00;99.90;;;;;;6338600;22;20018;-92
2024/02/13 09:34:30;;;;;;;5.85;2.45;;;6.10;99.90;;;;;;6338708;22;20464;-91
2024/02/13 09:36:57;;;;;;;7.32;2.00;;;6.10;99.90;;;;;;6337338;22;20007;-91
2024/02/13 09:39:24;;;;;;;3.42;1.83;;;6.10;99.90;;;;;;6337406;22;20019;-91
2024/02/13 09:41:51;;;;;;;7.13;2.10;;;6.10;99.90;;;;;;6337405;22;20002;-91
2024/02/13 09:44:18;;;;;;;10.45;2.15;;;6.20;99.90;;;;;;6340436;22;20006;-92
2024/02/13 09:46:44;;;;;;;8.02;1.83;;;6.20;99.90;;;;;;6338994;22;20022;-92
2024/02/13 09:49:13;;;;;;;7.57;2.13;;;6.20;99.90;;;;;;6338716;22;20009;-91
2024/02/13 09:51:43;;;;;;;8.32;2.28;;;6.30;99.90;;;;;;6339537;22;20379;-92
2024/02/13 09:54:15;;;;;;;7.18;1.98;;;6.30;99.90;;;;;;6343252;22;20003;-92
2024/02/13 09:56:41;;;;;;;6.25;1.42;;;6.40;99.90;;;;;;6340486;22;20521;-91
2024/02/13 09:59:11;;;;;;;6.85;1.48;;;6.50;99.90;;;;;;6347222;22;20035;-91
2024/02/13 10:01:38;;;;;;;5.95;1.60;;;6.50;99.90;;;;;;6349225;22;20006;-92
2024/02/13 10:04:04;;;;;;;8.98;1.63;;;6.70;99.90;;;;;;6350828;22;20055;-93
2024/02/13 10:06:30;;;;;;;5.93;1.45;;;6.80;99.90;;;;;;6349988;22;20009;-91
2024/02/13 10:09:00;;;;;;;5.57;1.52;;;6.90;99.90;;;;;;6347887;22;20002;-92
2024/02/13 10:11:38;;;;;;;6.50;1.98;;;7.00;99.90;;;;;;6352460;22;20025;-91
2024/02/13 10:14:18;;;;;;;6.53;1.83;;;7.00;99.90;;;;;;6354042;22;20011;-93
2024/02/13 10:16:45;;;;;;;7.53;1.70;;;7.00;99.90;;;;;;6356731;22;19999;-92
2024/02/13 10:19:13;;;;;;;5.30;1.48;;;7.00;99.90;;;;;;6354991;22;20014;-92
2024/02/13 10:21:49;;;;;;;12.55;1.98;;;7.00;99.90;;;;;;6358412;22;20002;-92
2024/02/13 10:24:15;;;;;;;8.60;1.60;;;7.00;99.90;;;;;;6353112;22;20058;-91
2024/02/13 10:26:41;;;;;;;7.07;1.80;;;7.10;99.90;;;;;;6349559;22;20014;-91
2024/02/13 10:29:08;;;;;;;5.28;2.03;;;7.10;99.90;;;;;;6354426;22;20052;-91
2024/02/13 10:31:35;;;;;;;11.43;2.15;;;7.10;99.90;;;;;;6363845;22;20003;-91
2024/02/13 10:34:08;;;;;;;5.30;1.60;;;7.10;99.90;;;;;;6363699;22;20007;-92
2024/02/13 10:36:36;;;;;;;9.77;1.90;;;7.10;99.90;;;;;;6362980;22;20009;-92
2024/02/13 10:39:08;;;;;;;10.95;2.78;;;7.20;99.90;;;;;;6361648;22;20168;-91
2024/02/13 10:41:40;;;;;;;4.90;1.70;;;7.20;99.90;;;;;;6361888;22;19993;-93
2024/02/13 10:44:10;;;;;;;7.28;2.33;;;7.30;99.90;;;;;;6391123;22;20035;-93
2024/02/13 10:46:39;;;;;;;6.13;2.15;;;7.30;99.90;;;;;;6358996;22;20018;-92
2024/02/13 10:49:24;;;;;;;8.80;2.28;;;7.30;99.90;;;;;;6349219;22;20013;-91
2024/02/13 10:51:53;;;;;;;6.00;1.75;;;7.30;99.90;;;;;;6351722;22;20013;-93
2024/02/13 10:54:26;;;;;;;7.30;2.00;;;7.30;99.90;;;;;;6350062;22;20006;-91
2024/02/13 10:56:57;;;;;;;6.47;2.53;;;7.30;99.90;;;;;;6353488;22;20010;-91
2024/02/13 10:59:24;;;;;;;9.63;2.50;;;7.30;99.90;;;;;;6356919;22;20066;-91
2024/02/13 11:01:54;;;;;;;7.85;3.40;;;7.40;99.90;;;;;;6355815;22;19999;-93
2024/02/13 11:04:20;;;;;;;8.27;3.10;;;7.40;99.90;;;;;;6349291;22;20002;-91
2024/02/13 11:06:46;;;;;;;7.70;2.95;;;7.40;99.90;;;;;;6348845;22;19995;-94
2024/02/13 11:09:12;;;;;;;11.68;2.97;;;7.40;99.90;;;;;;6346258;22;20036;-90
2024/02/13 11:11:41;;;;;;;9.85;2.88;;;7.40;99.90;;;;;;6346854;22;20102;-92
2024/02/13 11:14:21;;;;;;;9.88;2.78;;;7.50;99.90;;;;;;6348520;22;20006;-89
2024/02/13 11:17:03;;;;;;;4.97;2.92;;;7.60;99.90;;;;;;6349796;22;20007;-90
2024/02/13 11:19:38;;;;;;;6.32;2.42;;;7.70;99.90;;;;;;6375962;22;20006;-91
2024/02/13 11:22:08;;;;;;;9.50;2.53;;;7.80;99.90;;;;;;6347595;22;20005;-92
2024/02/13 11:24:48;;;;;;;8.55;2.35;;;7.80;99.90;;;;;;6348232;22;20025;-91
2024/02/13 11:27:25;;;;;;;3.10;2.33;;;7.90;99.90;;;;;;6348434;22;20098;-91
2024/02/13 11:29:59;;;;;;;6.03;2.10;;;7.90;99.90;;;;;;6347663;22;20002;-90
2024/02/13 11:32:28;;;;;;;6.28;2.28;;;7.90;99.90;;;;;;6375613;22;20003;-91
2024/02/13 11:35:05;;;;;;;6.65;1.95;;;7.80;99.90;;;;;;6346527;22;20077;-90
2024/02/13 11:37:34;;;;;;;5.82;2.38;;;7.80;99.90;;;;;;6347207;22;19998;-92
2024/02/13 11:40:06;;;;;;;3.88;1.80;;;7.80;99.90;;;;;;6347081;22;20567;-92
2024/02/13 11:42:33;;;;;;;4.22;2.03;;;7.70;99.90;;;;;;6347834;22;20006;-90
2024/02/13 11:45:00;;;;;;;3.40;1.92;;;7.70;99.90;;;;;;6346787;22;20006;-90
2024/02/13 11:47:26;;;;;;;5.13;1.90;;;7.70;99.90;;;;;;6346998;22;20085;-91
2024/02/13 11:49:54;;;;;;;4.75;1.70;;;7.60;99.90;;;;;;6347684;22;20009;-91
2024/02/13 11:52:23;;;;;;;5.57;1.60;;;7.60;99.90;;;;;;6347625;22;20093;-91
2024/02/13 11:54:51;;;;;;;4.45;1.90;;;7.50;99.90;;;;;;6347954;22;20135;-89
2024/02/13 11:57:26;;;;;;;4.15;1.92;;;7.50;99.90;;;;;;6347434;22;20006;-90
2024/02/13 12:00:05;;;;;;;5.60;1.90;;;7.40;99.90;;;;;;6341702;22;20014;-90
2024/02/13 12:02:33;;;;;;;3.63;2.13;;;7.40;99.90;;;;;;6318499;22;20003;-91
2024/02/13 12:04:59;;;;;;;3.67;2.20;;;7.40;99.90;;;;;;6348994;22;20017;-91
2024/02/13 12:07:26;;;;;;;4.72;2.33;;;7.40;99.90;;;;;;6355438;22;20006;-91
2024/02/13 12:09:52;;;;;;;6.05;2.30;;;7.40;99.90;;;;;;6356302;22;20007;-91
2024/02/13 12:12:20;;;;;;;4.00;2.28;;;7.40;99.90;;;;;;6346389;22;20048;-91
2024/02/13 12:14:46;;;;;;;4.72;2.10;;;7.30;99.90;;;;;;6344181;22;20011;-91
2024/02/13 12:17:12;;;;;;;4.72;2.42;;;7.30;99.90;;;;;;6343024;22;20106;-90
2024/02/13 12:19:41;;;;;;;3.55;1.73;;;7.30;99.90;;;;;;6342654;22;20007;-90
2024/02/13 12:22:11;;;;;;;2.83;1.77;;;7.30;99.90;;;;;;6344134;22;20003;-89
2024/02/13 12:24:40;;;;;;;2.03;1.60;;;7.30;99.90;;;;;;6344638;22;20085;-93
2024/02/13 12:27:10;;;;;;;5.88;2.42;;;7.30;99.90;;;;;;6351365;22;19999;-92
2024/02/13 12:29:47;;;;;;;2.72;2.22;;;7.30;99.90;;;;;;6351845;22;19998;-93
2024/02/13 12:32:17;;;;;;;8.82;2.60;;;7.30;99.90;;;;;;6349442;22;20070;-90
2024/02/13 12:34:43;;;;;;;4.57;2.40;;;7.40;99.90;;;;;;6346660;22;19995;-91
2024/02/13 12:39:45;;;;;;;2.88;2.20;;;7.40;99.90;;;;;;6340069;22;20517;-82
2024/02/13 12:42:13;;;;;;;5.70;2.03;;;7.50;99.90;;;;;;6316319;22;20006;-85
2024/02/13 12:44:40;;;;;;;4.45;2.28;;;7.50;99.90;;;;;;6311791;22;20072;-86
2024/02/13 12:47:10;;;;;;;4.05;1.98;;;7.50;99.90;;;;;;6339417;22;19995;-84
2024/02/13 12:49:38;;;;;;;;;;;7.50;99.90;;;;;;6315679;22;20018;-84
2024/02/13 12:52:07;;;;;;;4.70;2.13;;;7.50;99.90;;;;;;6311279;22;19898;-77
2024/02/13 12:54:33;;;;;;;3.35;1.92;;;7.50;99.90;;;;;;6308836;22;20010;-77
2024/02/13 12:57:00;;;;;;;3.20;1.60;;;7.50;99.90;;;;;;6310154;22;20308;-78
2024/02/13 12:59:27;;;;;;;2.58;1.70;;;7.50;99.90;;;;;;6337028;22;20088;-77
2024/02/13 13:01:54;;;;;;;4.32;1.70;;;7.50;99.90;;;;;;6338213;22;20001;-77
2024/02/13 13:04:25;;;;;;;3.33;1.90;;;7.50;99.90;;;;;;6337231;22;20090;-77